sensor_id;sensor_type;location;lat;lon;timestamp;P1;durP1;ratioP1;P2;durP2;ratioP2
3922;SDS011;1976;51.694;6.256;2023-06-14T00:01:39;7.23;;;4.07;;
3922;SDS011;1976;51.694;6.256;2023-06-14T00:04:05;9.90;;;4.20;;
3922;SDS011;1976;51.694;6.256;2023-06-14T00:06:33;6.27;;;4.07;;
3922;SDS011;1976;51.694;6.256;2023-06-14T00:08:59;19.93;;;4.23;;
3922;SDS011;1976;51.694;6.256;2023-06-14T00:11:26;6.93;;;3.80;;
3922;SDS011;1976;51.694;6.256;2023-06-14T00:13:52;12.90;;;4.77;;
3922;SDS011;1976;51.694;6.256;2023-06-14T00:16:18;11.10;;;4.63;;
3922;SDS011;1976;51.694;6.256;2023-06-14T00:18:44;6.00;;;3.70;;
3922;SDS011;1976;51.694;6.256;2023-06-14T00:21:11;10.17;;;3.50;;
3922;SDS011;1976;51.694;6.256;2023-06-14T00:23:37;5.20;;;3.80;;
3922;SDS011;1976;51.694;6.256;2023-06-14T00:26:03;5.60;;;3.70;;
3922;SDS011;1976;51.694;6.256;2023-06-14T00:28:29;4.40;;;3.63;;
3922;SDS011;1976;51.694;6.256;2023-06-14T00:30:55;6.50;;;3.60;;
3922;SDS011;1976;51.694;6.256;2023-06-14T00:33:21;6.40;;;4.37;;
3922;SDS011;1976;51.694;6.256;2023-06-14T00:35:47;4.13;;;3.70;;
3922;SDS011;1976;51.694;6.256;2023-06-14T00:38:14;8.40;;;4.03;;
3922;SDS011;1976;51.694;6.256;2023-06-14T00:40:40;8.50;;;4.27;;
3922;SDS011;1976;51.694;6.256;2023-06-14T00:43:06;11.00;;;3.60;;
3922;SDS011;1976;51.694;6.256;2023-06-14T00:45:32;7.53;;;3.93;;
3922;SDS011;1976;51.694;6.256;2023-06-14T00:48:01;10.07;;;4.23;;
3922;SDS011;1976;51.694;6.256;2023-06-14T00:50:28;11.13;;;4.60;;
3922;SDS011;1976;51.694;6.256;2023-06-14T00:52:54;6.33;;;3.83;;
3922;SDS011;1976;51.694;6.256;2023-06-14T00:55:21;8.00;;;3.87;;
3922;SDS011;1976;51.694;6.256;2023-06-14T00:57:47;4.60;;;3.43;;
3922;SDS011;1976;51.694;6.256;2023-06-14T01:00:14;8.43;;;4.20;;
3922;SDS011;1976;51.694;6.256;2023-06-14T01:02:40;16.77;;;3.90;;
3922;SDS011;1976;51.694;6.256;2023-06-14T01:05:06;10.23;;;4.00;;
3922;SDS011;1976;51.694;6.256;2023-06-14T01:10:46;8.23;;;3.43;;
3922;SDS011;1976;51.694;6.256;2023-06-14T01:13:27;7.57;;;3.70;;
3922;SDS011;1976;51.694;6.256;2023-06-14T01:15:57;10.30;;;4.03;;
3922;SDS011;1976;51.694;6.256;2023-06-14T01:18:23;6.33;;;4.23;;
3922;SDS011;1976;51.694;6.256;2023-06-14T01:20:51;8.40;;;4.43;;
3922;SDS011;1976;51.694;6.256;2023-06-14T01:23:18;7.20;;;3.93;;
3922;SDS011;1976;51.694;6.256;2023-06-14T01:25:45;8.10;;;3.90;;
3922;SDS011;1976;51.694;6.256;2023-06-14T01:28:12;5.27;;;3.43;;
3922;SDS011;1976;51.694;6.256;2023-06-14T01:30:42;6.13;;;4.00;;
3922;SDS011;1976;51.694;6.256;2023-06-14T01:33:12;10.63;;;3.67;;
3922;SDS011;1976;51.694;6.256;2023-06-14T01:35:39;5.07;;;3.50;;
3922;SDS011;1976;51.694;6.256;2023-06-14T01:38:08;6.20;;;3.97;;
3922;SDS011;1976;51.694;6.256;2023-06-14T01:40:34;12.67;;;4.47;;
3922;SDS011;1976;51.694;6.256;2023-06-14T01:43:00;14.37;;;4.10;;
3922;SDS011;1976;51.694;6.256;2023-06-14T01:45:28;5.00;;;3.80;;
3922;SDS011;1976;51.694;6.256;2023-06-14T01:47:54;8.93;;;4.20;;
3922;SDS011;1976;51.694;6.256;2023-06-14T01:50:20;8.03;;;3.93;;
3922;SDS011;1976;51.694;6.256;2023-06-14T01:52:46;4.30;;;3.43;;
3922;SDS011;1976;51.694;6.256;2023-06-14T01:55:12;5.80;;;4.00;;
3922;SDS011;1976;51.694;6.256;2023-06-14T01:57:38;9.43;;;4.07;;
3922;SDS011;1976;51.694;6.256;2023-06-14T02:00:04;9.90;;;3.90;;
3922;SDS011;1976;51.694;6.256;2023-06-14T02:02:37;10.13;;;4.10;;
3922;SDS011;1976;51.694;6.256;2023-06-14T02:05:04;6.50;;;3.73;;
3922;SDS011;1976;51.694;6.256;2023-06-14T02:07:30;5.70;;;4.30;;
3922;SDS011;1976;51.694;6.256;2023-06-14T02:09:56;6.30;;;4.20;;
3922;SDS011;1976;51.694;6.256;2023-06-14T02:12:22;6.67;;;4.13;;
3922;SDS011;1976;51.694;6.256;2023-06-14T02:14:48;8.20;;;4.53;;
3922;SDS011;1976;51.694;6.256;2023-06-14T02:17:14;5.93;;;3.90;;
3922;SDS011;1976;51.694;6.256;2023-06-14T02:19:41;5.57;;;4.17;;
3922;SDS011;1976;51.694;6.256;2023-06-14T02:22:07;16.50;;;4.20;;
3922;SDS011;1976;51.694;6.256;2023-06-14T02:24:33;6.70;;;4.33;;
3922;SDS011;1976;51.694;6.256;2023-06-14T02:27:00;7.00;;;4.60;;
3922;SDS011;1976;51.694;6.256;2023-06-14T02:29:26;5.60;;;4.03;;
3922;SDS011;1976;51.694;6.256;2023-06-14T02:31:52;8.00;;;3.53;;
3922;SDS011;1976;51.694;6.256;2023-06-14T02:34:18;8.77;;;4.07;;
3922;SDS011;1976;51.694;6.256;2023-06-14T02:36:45;7.03;;;3.87;;
3922;SDS011;1976;51.694;6.256;2023-06-14T02:39:12;10.20;;;4.37;;
3922;SDS011;1976;51.694;6.256;2023-06-14T02:41:38;7.27;;;4.20;;
3922;SDS011;1976;51.694;6.256;2023-06-14T02:44:05;8.70;;;3.73;;
3922;SDS011;1976;51.694;6.256;2023-06-14T02:46:31;4.73;;;3.50;;
3922;SDS011;1976;51.694;6.256;2023-06-14T02:48:57;9.07;;;4.67;;
3922;SDS011;1976;51.694;6.256;2023-06-14T02:51:23;4.77;;;3.50;;
3922;SDS011;1976;51.694;6.256;2023-06-14T02:53:49;5.97;;;3.60;;
3922;SDS011;1976;51.694;6.256;2023-06-14T02:56:15;8.70;;;4.57;;
3922;SDS011;1976;51.694;6.256;2023-06-14T02:58:42;17.97;;;3.97;;
3922;SDS011;1976;51.694;6.256;2023-06-14T03:01:08;7.30;;;4.03;;
3922;SDS011;1976;51.694;6.256;2023-06-14T03:03:39;12.60;;;4.10;;
3922;SDS011;1976;51.694;6.256;2023-06-14T03:06:06;5.10;;;4.27;;
3922;SDS011;1976;51.694;6.256;2023-06-14T03:08:34;12.97;;;4.00;;
3922;SDS011;1976;51.694;6.256;2023-06-14T03:11:03;7.40;;;4.03;;
3922;SDS011;1976;51.694;6.256;2023-06-14T03:13:33;9.57;;;4.67;;
3922;SDS011;1976;51.694;6.256;2023-06-14T03:15:59;7.53;;;4.63;;
3922;SDS011;1976;51.694;6.256;2023-06-14T03:18:29;7.90;;;4.30;;
3922;SDS011;1976;51.694;6.256;2023-06-14T03:20:56;4.80;;;3.73;;
3922;SDS011;1976;51.694;6.256;2023-06-14T03:23:23;5.87;;;4.50;;
3922;SDS011;1976;51.694;6.256;2023-06-14T03:25:50;4.97;;;3.47;;
3922;SDS011;1976;51.694;6.256;2023-06-14T03:28:16;15.30;;;3.90;;
3922;SDS011;1976;51.694;6.256;2023-06-14T03:30:42;5.87;;;4.20;;
3922;SDS011;1976;51.694;6.256;2023-06-14T03:33:08;6.73;;;3.50;;
3922;SDS011;1976;51.694;6.256;2023-06-14T03:35:34;7.37;;;3.80;;
3922;SDS011;1976;51.694;6.256;2023-06-14T03:38:00;9.20;;;3.80;;
3922;SDS011;1976;51.694;6.256;2023-06-14T03:40:28;5.53;;;4.23;;
3922;SDS011;1976;51.694;6.256;2023-06-14T03:42:54;7.87;;;3.73;;
3922;SDS011;1976;51.694;6.256;2023-06-14T03:45:20;12.87;;;4.23;;
3922;SDS011;1976;51.694;6.256;2023-06-14T03:47:46;20.00;;;4.63;;
3922;SDS011;1976;51.694;6.256;2023-06-14T03:50:12;7.50;;;3.70;;
3922;SDS011;1976;51.694;6.256;2023-06-14T03:52:38;5.20;;;4.10;;
3922;SDS011;1976;51.694;6.256;2023-06-14T03:55:04;5.67;;;3.33;;
3922;SDS011;1976;51.694;6.256;2023-06-14T03:57:30;6.30;;;3.83;;
3922;SDS011;1976;51.694;6.256;2023-06-14T03:59:56;8.33;;;3.80;;
3922;SDS011;1976;51.694;6.256;2023-06-14T04:02:22;8.90;;;3.90;;
3922;SDS011;1976;51.694;6.256;2023-06-14T04:04:48;18.53;;;4.37;;
3922;SDS011;1976;51.694;6.256;2023-06-14T04:07:15;7.47;;;3.83;;
3922;SDS011;1976;51.694;6.256;2023-06-14T04:09:44;6.40;;;3.60;;
3922;SDS011;1976;51.694;6.256;2023-06-14T04:12:10;27.20;;;3.70;;
3922;SDS011;1976;51.694;6.256;2023-06-14T04:14:36;5.50;;;3.97;;
3922;SDS011;1976;51.694;6.256;2023-06-14T04:17:03;4.77;;;3.30;;
3922;SDS011;1976;51.694;6.256;2023-06-14T04:19:29;11.57;;;4.40;;
3922;SDS011;1976;51.694;6.256;2023-06-14T04:21:55;15.23;;;4.17;;
3922;SDS011;1976;51.694;6.256;2023-06-14T04:24:22;4.97;;;3.47;;
3922;SDS011;1976;51.694;6.256;2023-06-14T04:26:48;4.70;;;3.50;;
3922;SDS011;1976;51.694;6.256;2023-06-14T04:29:16;8.70;;;3.30;;
3922;SDS011;1976;51.694;6.256;2023-06-14T04:31:45;16.93;;;3.70;;
3922;SDS011;1976;51.694;6.256;2023-06-14T04:34:12;4.30;;;3.23;;
3922;SDS011;1976;51.694;6.256;2023-06-14T04:36:41;8.73;;;3.40;;
3922;SDS011;1976;51.694;6.256;2023-06-14T04:39:20;12.03;;;3.43;;
3922;SDS011;1976;51.694;6.256;2023-06-14T04:41:46;3.83;;;3.17;;
3922;SDS011;1976;51.694;6.256;2023-06-14T04:44:12;4.97;;;3.13;;
3922;SDS011;1976;51.694;6.256;2023-06-14T04:46:42;6.37;;;3.57;;
3922;SDS011;1976;51.694;6.256;2023-06-14T04:49:12;29.00;;;3.43;;
3922;SDS011;1976;51.694;6.256;2023-06-14T04:51:40;10.53;;;3.40;;
3922;SDS011;1976;51.694;6.256;2023-06-14T04:54:08;14.30;;;3.60;;
3922;SDS011;1976;51.694;6.256;2023-06-14T04:56:38;8.17;;;3.73;;
3922;SDS011;1976;51.694;6.256;2023-06-14T04:59:05;17.47;;;3.93;;
3922;SDS011;1976;51.694;6.256;2023-06-14T05:01:31;7.00;;;3.23;;
3922;SDS011;1976;51.694;6.256;2023-06-14T05:03:58;3.20;;;2.40;;
3922;SDS011;1976;51.694;6.256;2023-06-14T05:06:24;5.10;;;3.23;;
3922;SDS011;1976;51.694;6.256;2023-06-14T05:08:52;4.70;;;3.13;;
3922;SDS011;1976;51.694;6.256;2023-06-14T05:11:18;4.53;;;2.73;;
3922;SDS011;1976;51.694;6.256;2023-06-14T05:13:44;8.97;;;3.57;;
3922;SDS011;1976;51.694;6.256;2023-06-14T05:16:10;8.73;;;3.03;;
3922;SDS011;1976;51.694;6.256;2023-06-14T05:18:37;9.13;;;2.90;;
3922;SDS011;1976;51.694;6.256;2023-06-14T05:21:05;7.33;;;2.77;;
3922;SDS011;1976;51.694;6.256;2023-06-14T05:23:31;8.73;;;3.10;;
3922;SDS011;1976;51.694;6.256;2023-06-14T05:25:57;5.10;;;3.10;;
3922;SDS011;1976;51.694;6.256;2023-06-14T05:28:23;8.03;;;3.13;;
3922;SDS011;1976;51.694;6.256;2023-06-14T05:30:49;3.83;;;3.00;;
3922;SDS011;1976;51.694;6.256;2023-06-14T05:33:16;4.13;;;2.77;;
3922;SDS011;1976;51.694;6.256;2023-06-14T05:35:42;14.00;;;3.50;;
3922;SDS011;1976;51.694;6.256;2023-06-14T05:38:08;4.50;;;3.40;;
3922;SDS011;1976;51.694;6.256;2023-06-14T05:40:34;7.20;;;2.90;;
3922;SDS011;1976;51.694;6.256;2023-06-14T05:43:00;10.27;;;3.70;;
3922;SDS011;1976;51.694;6.256;2023-06-14T05:45:26;14.47;;;3.70;;
3922;SDS011;1976;51.694;6.256;2023-06-14T05:47:52;2.70;;;2.50;;
3922;SDS011;1976;51.694;6.256;2023-06-14T05:50:19;8.57;;;2.63;;
3922;SDS011;1976;51.694;6.256;2023-06-14T05:52:45;14.50;;;3.30;;
3922;SDS011;1976;51.694;6.256;2023-06-14T05:55:11;3.73;;;3.00;;
3922;SDS011;1976;51.694;6.256;2023-06-14T05:57:37;6.63;;;2.70;;
3922;SDS011;1976;51.694;6.256;2023-06-14T06:00:04;5.33;;;3.03;;
3922;SDS011;1976;51.694;6.256;2023-06-14T06:02:36;11.33;;;2.70;;
3922;SDS011;1976;51.694;6.256;2023-06-14T06:05:02;3.70;;;2.80;;
3922;SDS011;1976;51.694;6.256;2023-06-14T06:07:28;7.07;;;2.77;;
3922;SDS011;1976;51.694;6.256;2023-06-14T06:09:53;14.60;;;3.20;;
3922;SDS011;1976;51.694;6.256;2023-06-14T06:12:19;8.43;;;2.90;;
3922;SDS011;1976;51.694;6.256;2023-06-14T06:14:45;3.60;;;2.80;;
3922;SDS011;1976;51.694;6.256;2023-06-14T06:17:10;3.60;;;2.70;;
3922;SDS011;1976;51.694;6.256;2023-06-14T06:19:36;2.80;;;2.50;;
3922;SDS011;1976;51.694;6.256;2023-06-14T06:22:02;11.10;;;3.30;;
3922;SDS011;1976;51.694;6.256;2023-06-14T06:24:31;4.00;;;2.37;;
3922;SDS011;1976;51.694;6.256;2023-06-14T06:26:57;11.17;;;2.53;;
3922;SDS011;1976;51.694;6.256;2023-06-14T06:29:22;2.67;;;2.30;;
3922;SDS011;1976;51.694;6.256;2023-06-14T06:31:48;4.47;;;2.20;;
3922;SDS011;1976;51.694;6.256;2023-06-14T06:34:13;4.70;;;2.73;;
3922;SDS011;1976;51.694;6.256;2023-06-14T06:36:39;8.23;;;3.33;;
3922;SDS011;1976;51.694;6.256;2023-06-14T06:39:05;8.20;;;2.63;;
3922;SDS011;1976;51.694;6.256;2023-06-14T06:41:34;8.23;;;3.00;;
3922;SDS011;1976;51.694;6.256;2023-06-14T06:44:02;27.70;;;3.30;;
3922;SDS011;1976;51.694;6.256;2023-06-14T06:46:28;6.20;;;2.83;;
3922;SDS011;1976;51.694;6.256;2023-06-14T06:48:53;4.13;;;2.60;;
3922;SDS011;1976;51.694;6.256;2023-06-14T06:51:19;8.13;;;2.23;;
3922;SDS011;1976;51.694;6.256;2023-06-14T06:53:51;9.50;;;2.73;;
3922;SDS011;1976;51.694;6.256;2023-06-14T06:56:18;3.40;;;2.67;;
3922;SDS011;1976;51.694;6.256;2023-06-14T06:58:44;2.70;;;2.20;;
3922;SDS011;1976;51.694;6.256;2023-06-14T07:01:10;5.20;;;2.70;;
3922;SDS011;1976;51.694;6.256;2023-06-14T07:03:36;22.10;;;3.03;;
3922;SDS011;1976;51.694;6.256;2023-06-14T07:06:02;6.27;;;2.37;;
3922;SDS011;1976;51.694;6.256;2023-06-14T07:08:28;3.20;;;2.20;;
3922;SDS011;1976;51.694;6.256;2023-06-14T07:10:54;3.47;;;2.43;;
3922;SDS011;1976;51.694;6.256;2023-06-14T07:13:20;7.23;;;2.13;;
3922;SDS011;1976;51.694;6.256;2023-06-14T07:15:46;2.60;;;1.87;;
3922;SDS011;1976;51.694;6.256;2023-06-14T07:18:12;3.83;;;1.67;;
3922;SDS011;1976;51.694;6.256;2023-06-14T07:20:37;9.53;;;2.07;;
3922;SDS011;1976;51.694;6.256;2023-06-14T07:23:03;3.73;;;2.30;;
3922;SDS011;1976;51.694;6.256;2023-06-14T07:25:29;2.30;;;1.50;;
3922;SDS011;1976;51.694;6.256;2023-06-14T07:27:55;6.10;;;1.90;;
3922;SDS011;1976;51.694;6.256;2023-06-14T07:30:20;11.13;;;2.17;;
3922;SDS011;1976;51.694;6.256;2023-06-14T07:32:46;9.80;;;2.30;;
3922;SDS011;1976;51.694;6.256;2023-06-14T07:35:11;1.80;;;1.70;;
3922;SDS011;1976;51.694;6.256;2023-06-14T07:37:37;21.63;;;2.03;;
3922;SDS011;1976;51.694;6.256;2023-06-14T07:40:03;3.87;;;2.10;;
3922;SDS011;1976;51.694;6.256;2023-06-14T07:42:32;2.20;;;1.60;;
3922;SDS011;1976;51.694;6.256;2023-06-14T07:44:59;22.17;;;2.00;;
3922;SDS011;1976;51.694;6.256;2023-06-14T07:47:25;1.73;;;1.50;;
3922;SDS011;1976;51.694;6.256;2023-06-14T07:49:50;4.73;;;2.17;;
3922;SDS011;1976;51.694;6.256;2023-06-14T07:52:16;4.63;;;1.60;;
3922;SDS011;1976;51.694;6.256;2023-06-14T07:54:42;1.83;;;1.67;;
3922;SDS011;1976;51.694;6.256;2023-06-14T07:57:08;18.53;;;1.83;;
3922;SDS011;1976;51.694;6.256;2023-06-14T07:59:34;2.37;;;1.90;;
3922;SDS011;1976;51.694;6.256;2023-06-14T08:02:00;4.40;;;1.63;;
3922;SDS011;1976;51.694;6.256;2023-06-14T08:04:26;3.63;;;1.70;;
3922;SDS011;1976;51.694;6.256;2023-06-14T08:06:51;4.50;;;2.00;;
3922;SDS011;1976;51.694;6.256;2023-06-14T08:09:17;1.77;;;1.67;;
3922;SDS011;1976;51.694;6.256;2023-06-14T08:11:42;11.30;;;2.03;;
3922;SDS011;1976;51.694;6.256;2023-06-14T08:14:08;15.87;;;2.13;;
3922;SDS011;1976;51.694;6.256;2023-06-14T08:16:34;6.50;;;2.00;;
3922;SDS011;1976;51.694;6.256;2023-06-14T08:18:59;1.50;;;1.40;;
3922;SDS011;1976;51.694;6.256;2023-06-14T08:21:26;12.50;;;3.27;;
3922;SDS011;1976;51.694;6.256;2023-06-14T08:23:54;4.63;;;1.73;;
3922;SDS011;1976;51.694;6.256;2023-06-14T08:26:22;11.40;;;2.50;;
3922;SDS011;1976;51.694;6.256;2023-06-14T08:28:48;8.43;;;2.30;;
3922;SDS011;1976;51.694;6.256;2023-06-14T08:31:14;5.97;;;1.90;;
3922;SDS011;1976;51.694;6.256;2023-06-14T08:33:39;2.37;;;1.73;;
3922;SDS011;1976;51.694;6.256;2023-06-14T08:36:08;42.97;;;3.13;;
3922;SDS011;1976;51.694;6.256;2023-06-14T08:38:35;17.27;;;2.33;;
3922;SDS011;1976;51.694;6.256;2023-06-14T08:41:01;4.97;;;1.87;;
3922;SDS011;1976;51.694;6.256;2023-06-14T08:43:29;5.27;;;1.80;;
3922;SDS011;1976;51.694;6.256;2023-06-14T08:45:57;8.77;;;2.30;;
3922;SDS011;1976;51.694;6.256;2023-06-14T08:48:26;10.93;;;2.10;;
3922;SDS011;1976;51.694;6.256;2023-06-14T08:50:53;6.40;;;1.50;;
3922;SDS011;1976;51.694;6.256;2023-06-14T08:53:26;12.07;;;2.67;;
3922;SDS011;1976;51.694;6.256;2023-06-14T08:55:57;8.33;;;2.43;;
3922;SDS011;1976;51.694;6.256;2023-06-14T08:58:26;5.83;;;1.90;;
3922;SDS011;1976;51.694;6.256;2023-06-14T09:00:54;5.87;;;1.70;;
3922;SDS011;1976;51.694;6.256;2023-06-14T09:03:21;9.83;;;1.73;;
3922;SDS011;1976;51.694;6.256;2023-06-14T09:05:48;8.20;;;1.70;;
3922;SDS011;1976;51.694;6.256;2023-06-14T09:08:14;6.33;;;2.33;;
3922;SDS011;1976;51.694;6.256;2023-06-14T09:10:41;18.30;;;1.80;;
3922;SDS011;1976;51.694;6.256;2023-06-14T09:13:06;5.83;;;1.87;;
3922;SDS011;1976;51.694;6.256;2023-06-14T09:15:32;7.33;;;1.57;;
3922;SDS011;1976;51.694;6.256;2023-06-14T09:18:03;5.03;;;1.73;;
3922;SDS011;1976;51.694;6.256;2023-06-14T09:20:29;3.03;;;1.17;;
3922;SDS011;1976;51.694;6.256;2023-06-14T09:22:55;5.93;;;1.70;;
3922;SDS011;1976;51.694;6.256;2023-06-14T09:25:21;4.10;;;2.00;;
3922;SDS011;1976;51.694;6.256;2023-06-14T09:27:47;4.20;;;2.00;;
3922;SDS011;1976;51.694;6.256;2023-06-14T09:30:13;24.93;;;2.87;;
3922;SDS011;1976;51.694;6.256;2023-06-14T09:32:39;10.60;;;1.87;;
3922;SDS011;1976;51.694;6.256;2023-06-14T09:35:08;16.00;;;1.83;;
3922;SDS011;1976;51.694;6.256;2023-06-14T09:37:34;3.80;;;1.30;;
3922;SDS011;1976;51.694;6.256;2023-06-14T09:40:02;11.63;;;1.57;;
3922;SDS011;1976;51.694;6.256;2023-06-14T09:42:29;13.90;;;1.67;;
3922;SDS011;1976;51.694;6.256;2023-06-14T09:44:56;5.70;;;1.53;;
3922;SDS011;1976;51.694;6.256;2023-06-14T09:47:25;3.33;;;1.20;;
3922;SDS011;1976;51.694;6.256;2023-06-14T09:49:51;1.43;;;1.27;;
3922;SDS011;1976;51.694;6.256;2023-06-14T09:52:20;3.03;;;1.23;;
3922;SDS011;1976;51.694;6.256;2023-06-14T09:54:47;2.53;;;1.40;;
3922;SDS011;1976;51.694;6.256;2023-06-14T09:57:16;1.20;;;1.13;;
3922;SDS011;1976;51.694;6.256;2023-06-14T09:59:46;1.40;;;1.30;;
3922;SDS011;1976;51.694;6.256;2023-06-14T10:07:44;7.40;;;1.40;;
3922;SDS011;1976;51.694;6.256;2023-06-14T10:10:17;2.20;;;1.30;;
3922;SDS011;1976;51.694;6.256;2023-06-14T10:12:43;1.70;;;0.97;;
3922;SDS011;1976;51.694;6.256;2023-06-14T10:15:09;1.33;;;1.23;;
3922;SDS011;1976;51.694;6.256;2023-06-14T10:17:56;1.97;;;1.87;;
3922;SDS011;1976;51.694;6.256;2023-06-14T10:20:43;3.17;;;0.97;;
3922;SDS011;1976;51.694;6.256;2023-06-14T10:23:46;2.33;;;1.30;;
3922;SDS011;1976;51.694;6.256;2023-06-14T10:26:20;4.23;;;1.33;;
3922;SDS011;1976;51.694;6.256;2023-06-14T10:29:00;3.97;;;1.10;;
3922;SDS011;1976;51.694;6.256;2023-06-14T10:31:42;3.90;;;1.20;;
3922;SDS011;1976;51.694;6.256;2023-06-14T10:34:09;3.03;;;1.20;;
3922;SDS011;1976;51.694;6.256;2023-06-14T10:36:36;3.13;;;1.60;;
3922;SDS011;1976;51.694;6.256;2023-06-14T10:41:40;1.70;;;1.10;;
3922;SDS011;1976;51.694;6.256;2023-06-14T10:46:38;2.73;;;1.30;;
3922;SDS011;1976;51.694;6.256;2023-06-14T10:49:04;4.60;;;1.50;;
3922;SDS011;1976;51.694;6.256;2023-06-14T10:51:37;1.47;;;1.00;;
3922;SDS011;1976;51.694;6.256;2023-06-14T10:54:14;1.67;;;1.30;;
3922;SDS011;1976;51.694;6.256;2023-06-14T10:56:53;9.00;;;1.20;;
3922;SDS011;1976;51.694;6.256;2023-06-14T10:59:19;1.30;;;1.07;;
3922;SDS011;1976;51.694;6.256;2023-06-14T11:01:58;3.77;;;1.30;;
3922;SDS011;1976;51.694;6.256;2023-06-14T11:04:47;6.10;;;1.07;;
3922;SDS011;1976;51.694;6.256;2023-06-14T11:10:10;6.07;;;1.40;;
3922;SDS011;1976;51.694;6.256;2023-06-14T11:12:40;11.63;;;1.30;;
3922;SDS011;1976;51.694;6.256;2023-06-14T11:15:10;2.37;;;1.10;;
3922;SDS011;1976;51.694;6.256;2023-06-14T11:17:36;1.63;;;1.30;;
3922;SDS011;1976;51.694;6.256;2023-06-14T11:20:10;1.93;;;1.07;;
3922;SDS011;1976;51.694;6.256;2023-06-14T11:22:43;1.80;;;1.10;;
3922;SDS011;1976;51.694;6.256;2023-06-14T11:25:10;0.90;;;0.90;;
3922;SDS011;1976;51.694;6.256;2023-06-14T11:27:36;1.53;;;1.00;;
3922;SDS011;1976;51.694;6.256;2023-06-14T11:30:02;5.30;;;1.27;;
3922;SDS011;1976;51.694;6.256;2023-06-14T11:32:28;4.77;;;0.87;;
3922;SDS011;1976;51.694;6.256;2023-06-14T11:34:56;2.73;;;1.07;;
3922;SDS011;1976;51.694;6.256;2023-06-14T11:37:23;0.90;;;0.70;;
3922;SDS011;1976;51.694;6.256;2023-06-14T11:39:51;6.33;;;1.27;;
3922;SDS011;1976;51.694;6.256;2023-06-14T11:42:16;1.27;;;0.93;;
3922;SDS011;1976;51.694;6.256;2023-06-14T11:44:45;1.20;;;1.20;;
3922;SDS011;1976;51.694;6.256;2023-06-14T11:47:12;2.10;;;1.90;;
3922;SDS011;1976;51.694;6.256;2023-06-14T11:49:38;0.93;;;0.83;;
3922;SDS011;1976;51.694;6.256;2023-06-14T11:52:03;4.10;;;1.07;;
3922;SDS011;1976;51.694;6.256;2023-06-14T11:54:31;7.47;;;1.20;;
3922;SDS011;1976;51.694;6.256;2023-06-14T11:56:57;0.80;;;0.80;;
3922;SDS011;1976;51.694;6.256;2023-06-14T11:59:23;0.80;;;0.70;;
3922;SDS011;1976;51.694;6.256;2023-06-14T12:01:50;14.80;;;1.00;;
3922;SDS011;1976;51.694;6.256;2023-06-14T12:04:28;2.37;;;1.10;;
3922;SDS011;1976;51.694;6.256;2023-06-14T12:06:54;9.00;;;1.00;;
3922;SDS011;1976;51.694;6.256;2023-06-14T12:09:21;7.00;;;1.00;;
3922;SDS011;1976;51.694;6.256;2023-06-14T12:11:49;1.07;;;0.77;;
3922;SDS011;1976;51.694;6.256;2023-06-14T12:14:15;3.20;;;0.90;;
3922;SDS011;1976;51.694;6.256;2023-06-14T12:16:41;16.90;;;1.40;;
3922;SDS011;1976;51.694;6.256;2023-06-14T12:19:08;4.83;;;0.73;;
3922;SDS011;1976;51.694;6.256;2023-06-14T12:21:38;0.70;;;0.70;;
3922;SDS011;1976;51.694;6.256;2023-06-14T12:24:05;0.80;;;0.80;;
3922;SDS011;1976;51.694;6.256;2023-06-14T12:26:32;1.27;;;0.80;;
3922;SDS011;1976;51.694;6.256;2023-06-14T12:28:58;0.70;;;0.70;;
3922;SDS011;1976;51.694;6.256;2023-06-14T12:31:24;0.93;;;0.93;;
3922;SDS011;1976;51.694;6.256;2023-06-14T12:33:51;14.07;;;1.00;;
3922;SDS011;1976;51.694;6.256;2023-06-14T12:36:17;3.57;;;0.70;;
3922;SDS011;1976;51.694;6.256;2023-06-14T12:38:43;0.73;;;0.63;;
3922;SDS011;1976;51.694;6.256;2023-06-14T12:41:08;7.87;;;1.00;;
3922;SDS011;1976;51.694;6.256;2023-06-14T12:43:34;0.70;;;0.70;;
3922;SDS011;1976;51.694;6.256;2023-06-14T12:46:00;0.70;;;0.70;;
3922;SDS011;1976;51.694;6.256;2023-06-14T12:48:26;6.23;;;0.80;;
3922;SDS011;1976;51.694;6.256;2023-06-14T12:50:56;0.97;;;0.80;;
3922;SDS011;1976;51.694;6.256;2023-06-14T12:53:22;4.40;;;1.23;;
3922;SDS011;1976;51.694;6.256;2023-06-14T12:55:48;0.80;;;0.80;;
3922;SDS011;1976;51.694;6.256;2023-06-14T12:58:13;2.10;;;1.30;;
3922;SDS011;1976;51.694;6.256;2023-06-14T13:00:39;4.47;;;0.77;;
3922;SDS011;1976;51.694;6.256;2023-06-14T13:03:05;0.93;;;0.70;;
3922;SDS011;1976;51.694;6.256;2023-06-14T13:05:31;0.90;;;0.80;;
3922;SDS011;1976;51.694;6.256;2023-06-14T13:07:58;0.73;;;0.70;;
3922;SDS011;1976;51.694;6.256;2023-06-14T13:10:24;22.77;;;1.80;;
3922;SDS011;1976;51.694;6.256;2023-06-14T13:12:52;4.30;;;0.90;;
3922;SDS011;1976;51.694;6.256;2023-06-14T13:15:17;12.00;;;0.70;;
3922;SDS011;1976;51.694;6.256;2023-06-14T13:17:43;4.00;;;0.80;;
3922;SDS011;1976;51.694;6.256;2023-06-14T13:20:13;2.10;;;0.90;;
3922;SDS011;1976;51.694;6.256;2023-06-14T13:22:41;5.73;;;0.90;;
3922;SDS011;1976;51.694;6.256;2023-06-14T13:25:06;0.80;;;0.80;;
3922;SDS011;1976;51.694;6.256;2023-06-14T13:27:32;1.30;;;0.70;;
3922;SDS011;1976;51.694;6.256;2023-06-14T13:29:58;2.07;;;1.00;;
3922;SDS011;1976;51.694;6.256;2023-06-14T13:32:23;0.70;;;0.70;;
3922;SDS011;1976;51.694;6.256;2023-06-14T13:34:49;15.50;;;1.17;;
3922;SDS011;1976;51.694;6.256;2023-06-14T13:37:15;0.87;;;0.70;;
3922;SDS011;1976;51.694;6.256;2023-06-14T13:39:41;0.70;;;0.70;;
3922;SDS011;1976;51.694;6.256;2023-06-14T13:42:06;4.47;;;0.80;;
3922;SDS011;1976;51.694;6.256;2023-06-14T13:44:32;2.57;;;0.87;;
3922;SDS011;1976;51.694;6.256;2023-06-14T13:46:58;0.80;;;0.80;;
3922;SDS011;1976;51.694;6.256;2023-06-14T13:49:24;2.30;;;0.90;;
3922;SDS011;1976;51.694;6.256;2023-06-14T13:51:50;1.43;;;0.90;;
3922;SDS011;1976;51.694;6.256;2023-06-14T13:54:18;2.83;;;0.73;;
3922;SDS011;1976;51.694;6.256;2023-06-14T13:56:46;10.37;;;1.10;;
3922;SDS011;1976;51.694;6.256;2023-06-14T13:59:12;4.67;;;0.90;;
3922;SDS011;1976;51.694;6.256;2023-06-14T14:01:37;1.07;;;0.90;;
3922;SDS011;1976;51.694;6.256;2023-06-14T14:04:03;27.40;;;1.20;;
3922;SDS011;1976;51.694;6.256;2023-06-14T14:06:29;1.37;;;0.90;;
3922;SDS011;1976;51.694;6.256;2023-06-14T14:08:56;4.00;;;0.80;;
3922;SDS011;1976;51.694;6.256;2023-06-14T14:11:22;1.00;;;0.90;;
3922;SDS011;1976;51.694;6.256;2023-06-14T14:13:47;2.67;;;0.77;;
3922;SDS011;1976;51.694;6.256;2023-06-14T14:16:13;4.87;;;0.70;;
3922;SDS011;1976;51.694;6.256;2023-06-14T14:18:39;1.30;;;0.70;;
3922;SDS011;1976;51.694;6.256;2023-06-14T14:21:05;0.60;;;0.60;;
3922;SDS011;1976;51.694;6.256;2023-06-14T14:23:31;5.53;;;1.20;;
3922;SDS011;1976;51.694;6.256;2023-06-14T14:25:57;1.10;;;0.80;;
3922;SDS011;1976;51.694;6.256;2023-06-14T14:28:23;2.33;;;0.73;;
3922;SDS011;1976;51.694;6.256;2023-06-14T14:30:49;0.73;;;0.67;;
3922;SDS011;1976;51.694;6.256;2023-06-14T14:33:15;6.83;;;0.90;;
3922;SDS011;1976;51.694;6.256;2023-06-14T14:35:42;3.77;;;1.00;;
3922;SDS011;1976;51.694;6.256;2023-06-14T14:38:09;3.23;;;1.00;;
3922;SDS011;1976;51.694;6.256;2023-06-14T14:40:35;1.00;;;0.90;;
3922;SDS011;1976;51.694;6.256;2023-06-14T14:43:01;3.30;;;1.00;;
3922;SDS011;1976;51.694;6.256;2023-06-14T14:45:27;0.80;;;0.80;;
3922;SDS011;1976;51.694;6.256;2023-06-14T14:47:53;1.33;;;0.73;;
3922;SDS011;1976;51.694;6.256;2023-06-14T14:50:19;2.13;;;0.90;;
3922;SDS011;1976;51.694;6.256;2023-06-14T14:52:45;4.57;;;1.27;;
3922;SDS011;1976;51.694;6.256;2023-06-14T14:55:11;5.03;;;0.90;;
3922;SDS011;1976;51.694;6.256;2023-06-14T14:57:37;2.83;;;1.00;;
3922;SDS011;1976;51.694;6.256;2023-06-14T15:00:03;0.80;;;0.80;;
3922;SDS011;1976;51.694;6.256;2023-06-14T15:02:30;2.10;;;1.10;;
3922;SDS011;1976;51.694;6.256;2023-06-14T15:04:56;1.80;;;0.90;;
3922;SDS011;1976;51.694;6.256;2023-06-14T15:07:26;1.10;;;1.00;;
3922;SDS011;1976;51.694;6.256;2023-06-14T15:09:52;1.97;;;0.90;;
3922;SDS011;1976;51.694;6.256;2023-06-14T15:12:18;3.27;;;1.10;;
3922;SDS011;1976;51.694;6.256;2023-06-14T15:14:45;0.90;;;0.90;;
3922;SDS011;1976;51.694;6.256;2023-06-14T15:17:11;8.80;;;1.07;;
3922;SDS011;1976;51.694;6.256;2023-06-14T15:19:37;1.17;;;1.17;;
3922;SDS011;1976;51.694;6.256;2023-06-14T15:22:02;3.23;;;1.20;;
3922;SDS011;1976;51.694;6.256;2023-06-14T15:24:28;12.70;;;1.10;;
3922;SDS011;1976;51.694;6.256;2023-06-14T15:26:55;3.33;;;1.03;;
3922;SDS011;1976;51.694;6.256;2023-06-14T15:29:21;2.77;;;1.40;;